sensor_id;sensor_type;location;lat;lon;timestamp;pressure;altitude;pressure_sealevel;temperature;humidity
65384;BME280;51986;52.788;41.368;2023-03-04T00:01:18;97945.56;;;0.11;63.21
65384;BME280;51986;52.788;41.368;2023-03-04T00:03:45;97930.38;;;0.09;63.44
65384;BME280;51986;52.788;41.368;2023-03-04T00:06:12;97945.31;;;0.19;63.36
65384;BME280;51986;52.788;41.368;2023-03-04T00:08:39;97926.81;;;0.24;63.28
65384;BME280;51986;52.788;41.368;2023-03-04T00:11:05;97921.13;;;0.12;63.67
65384;BME280;51986;52.788;41.368;2023-03-04T00:13:32;97903.66;;;0.05;63.53
65384;BME280;51986;52.788;41.368;2023-03-04T00:15:59;97905.34;;;-0.10;63.88
65384;BME280;51986;52.788;41.368;2023-03-04T00:18:26;97902.44;;;-0.05;64.25
65384;BME280;51986;52.788;41.368;2023-03-04T00:20:53;97909.97;;;0.08;63.71
65384;BME280;51986;52.788;41.368;2023-03-04T00:23:20;97891.50;;;0.09;63.56
65384;BME280;51986;52.788;41.368;2023-03-04T00:25:47;97915.63;;;0.13;63.67
65384;BME280;51986;52.788;41.368;2023-03-04T00:28:14;97889.22;;;0.08;63.54
65384;BME280;51986;52.788;41.368;2023-03-04T00:30:41;97877.66;;;-0.02;63.30
65384;BME280;51986;52.788;41.368;2023-03-04T00:33:08;97876.72;;;0.13;63.02
65384;BME280;51986;52.788;41.368;2023-03-04T00:35:35;97873.50;;;0.27;63.39
65384;BME280;51986;52.788;41.368;2023-03-04T00:38:02;97862.81;;;0.36;62.98
65384;BME280;51986;52.788;41.368;2023-03-04T00:40:29;97871.78;;;0.42;62.43
65384;BME280;51986;52.788;41.368;2023-03-04T00:42:56;97868.75;;;0.33;62.40
65384;BME280;51986;52.788;41.368;2023-03-04T00:45:23;97860.56;;;0.30;62.73
65384;BME280;51986;52.788;41.368;2023-03-04T00:47:50;97874.75;;;0.44;62.42
65384;BME280;51986;52.788;41.368;2023-03-04T00:50:17;97875.50;;;0.44;62.31
65384;BME280;51986;52.788;41.368;2023-03-04T00:52:44;97855.81;;;0.40;62.60
65384;BME280;51986;52.788;41.368;2023-03-04T00:55:11;97880.00;;;0.51;62.28
65384;BME280;51986;52.788;41.368;2023-03-04T00:57:38;97855.88;;;0.47;61.89
65384;BME280;51986;52.788;41.368;2023-03-04T01:00:06;97833.97;;;0.41;62.07
65384;BME280;51986;52.788;41.368;2023-03-04T01:02:33;97833.59;;;0.39;62.18
65384;BME280;51986;52.788;41.368;2023-03-04T01:05:00;97844.25;;;0.30;62.25
65384;BME280;51986;52.788;41.368;2023-03-04T01:07:27;97832.34;;;0.25;62.64
65384;BME280;51986;52.788;41.368;2023-03-04T01:09:54;97830.47;;;0.22;63.04
65384;BME280;51986;52.788;41.368;2023-03-04T01:12:21;97835.69;;;0.26;62.33
65384;BME280;51986;52.788;41.368;2023-03-04T01:14:48;97824.19;;;0.23;62.11
65384;BME280;51986;52.788;41.368;2023-03-04T01:17:15;97817.50;;;0.22;62.40
65384;BME280;51986;52.788;41.368;2023-03-04T01:19:42;97833.09;;;0.26;62.42
65384;BME280;51986;52.788;41.368;2023-03-04T01:22:10;97808.53;;;0.09;63.01
65384;BME280;51986;52.788;41.368;2023-03-04T01:24:37;97825.59;;;0.17;62.74
65384;BME280;51986;52.788;41.368;2023-03-04T01:27:05;97824.09;;;0.13;62.65
65384;BME280;51986;52.788;41.368;2023-03-04T01:29:32;97809.09;;;-0.08;63.37
65384;BME280;51986;52.788;41.368;2023-03-04T01:31:59;97823.97;;;-0.02;63.47
65384;BME280;51986;52.788;41.368;2023-03-04T01:34:26;97821.06;;;0.03;63.63
65384;BME280;51986;52.788;41.368;2023-03-04T01:36:53;97828.72;;;-0.07;63.57
65384;BME280;51986;52.788;41.368;2023-03-04T01:39:20;97839.22;;;0.03;63.45
65384;BME280;51986;52.788;41.368;2023-03-04T01:41:47;97804.38;;;0.01;63.00
65384;BME280;51986;52.788;41.368;2023-03-04T01:44:14;97820.16;;;-0.15;63.71
65384;BME280;51986;52.788;41.368;2023-03-04T01:46:46;97808.09;;;-0.34;64.30
65384;BME280;51986;52.788;41.368;2023-03-04T01:49:14;97811.44;;;0.04;63.45
65384;BME280;51986;52.788;41.368;2023-03-04T01:51:43;97820.44;;;0.17;62.93
65384;BME280;51986;52.788;41.368;2023-03-04T01:54:12;97793.41;;;0.22;62.47
65384;BME280;51986;52.788;41.368;2023-03-04T01:56:39;97807.88;;;0.19;62.54
65384;BME280;51986;52.788;41.368;2023-03-04T01:59:27;97793.56;;;0.40;62.10
65384;BME280;51986;52.788;41.368;2023-03-04T02:01:59;97787.13;;;0.19;62.19
65384;BME280;51986;52.788;41.368;2023-03-04T02:04:29;97769.63;;;0.13;62.24
65384;BME280;51986;52.788;41.368;2023-03-04T02:06:58;97784.56;;;0.26;62.50
65384;BME280;51986;52.788;41.368;2023-03-04T02:09:27;97784.53;;;0.19;62.64
65384;BME280;51986;52.788;41.368;2023-03-04T02:11:56;97777.19;;;0.28;62.08
65384;BME280;51986;52.788;41.368;2023-03-04T02:14:23;97780.19;;;0.34;62.47
65384;BME280;51986;52.788;41.368;2023-03-04T02:16:51;97775.03;;;0.41;61.73
65384;BME280;51986;52.788;41.368;2023-03-04T02:19:41;97775.03;;;0.41;61.86
65384;BME280;51986;52.788;41.368;2023-03-04T02:22:12;97763.06;;;0.26;62.43
65384;BME280;51986;52.788;41.368;2023-03-04T02:24:53;97776.41;;;0.24;62.32
65384;BME280;51986;52.788;41.368;2023-03-04T02:27:22;97741.88;;;0.13;62.38
65384;BME280;51986;52.788;41.368;2023-03-04T02:29:49;97773.00;;;0.13;62.39
65384;BME280;51986;52.788;41.368;2023-03-04T02:32:16;97771.38;;;-0.02;62.71
65384;BME280;51986;52.788;41.368;2023-03-04T02:34:48;97752.16;;;0.02;63.25
65384;BME280;51986;52.788;41.368;2023-03-04T02:37:17;97772.47;;;-0.03;63.02
65384;BME280;51986;52.788;41.368;2023-03-04T02:39:46;97776.75;;;-0.22;64.07
65384;BME280;51986;52.788;41.368;2023-03-04T02:42:15;97775.81;;;-0.06;63.33
65384;BME280;51986;52.788;41.368;2023-03-04T02:44:44;97758.97;;;0.18;62.44
65384;BME280;51986;52.788;41.368;2023-03-04T02:47:13;97771.13;;;0.10;63.06
65384;BME280;51986;52.788;41.368;2023-03-04T02:49:40;97759.44;;;-0.14;63.49
65384;BME280;51986;52.788;41.368;2023-03-04T02:52:13;97765.72;;;-0.11;63.23
65384;BME280;51986;52.788;41.368;2023-03-04T02:54:40;97754.63;;;-0.15;63.48
65384;BME280;51986;52.788;41.368;2023-03-04T02:57:09;97763.13;;;-0.15;64.48
65384;BME280;51986;52.788;41.368;2023-03-04T02:59:40;97751.63;;;-0.17;63.94
65384;BME280;51986;52.788;41.368;2023-03-04T03:02:11;97732.84;;;-0.04;63.55
65384;BME280;51986;52.788;41.368;2023-03-04T03:04:39;97744.06;;;0.11;62.94
65384;BME280;51986;52.788;41.368;2023-03-04T03:07:10;97704.78;;;0.06;62.83
65384;BME280;51986;52.788;41.368;2023-03-04T03:09:38;97756.66;;;0.09;63.20
65384;BME280;51986;52.788;41.368;2023-03-04T03:12:05;97756.38;;;0.18;63.20
65384;BME280;51986;52.788;41.368;2023-03-04T03:14:32;97731.47;;;0.10;63.58
65384;BME280;51986;52.788;41.368;2023-03-04T03:17:01;97714.78;;;0.07;62.56
65384;BME280;51986;52.788;41.368;2023-03-04T03:19:28;97734.91;;;0.24;63.27
65384;BME280;51986;52.788;41.368;2023-03-04T03:21:55;97705.66;;;0.24;62.43
65384;BME280;51986;52.788;41.368;2023-03-04T03:24:22;97729.75;;;0.28;62.59
65384;BME280;51986;52.788;41.368;2023-03-04T03:26:48;97719.34;;;0.24;62.05
65384;BME280;51986;52.788;41.368;2023-03-04T03:29:15;97714.97;;;0.36;62.27
65384;BME280;51986;52.788;41.368;2023-03-04T03:31:42;97705.28;;;0.25;62.39
65384;BME280;51986;52.788;41.368;2023-03-04T03:34:10;97704.97;;;0.34;62.06
65384;BME280;51986;52.788;41.368;2023-03-04T03:36:37;97714.59;;;0.34;62.05
65384;BME280;51986;52.788;41.368;2023-03-04T03:39:04;97713.16;;;0.40;62.01
65384;BME280;51986;52.788;41.368;2023-03-04T03:41:31;97717.66;;;0.50;62.60
65384;BME280;51986;52.788;41.368;2023-03-04T03:43:58;97725.84;;;0.52;62.05
65384;BME280;51986;52.788;41.368;2023-03-04T03:46:25;97704.66;;;0.46;61.88
65384;BME280;51986;52.788;41.368;2023-03-04T03:48:52;97716.41;;;0.26;62.96
65384;BME280;51986;52.788;41.368;2023-03-04T03:51:19;97704.25;;;0.37;62.38
65384;BME280;51986;52.788;41.368;2023-03-04T03:53:46;97700.88;;;0.29;62.95
65384;BME280;51986;52.788;41.368;2023-03-04T03:56:13;97695.41;;;0.42;62.87
65384;BME280;51986;52.788;41.368;2023-03-04T03:58:40;97699.81;;;0.41;63.08
65384;BME280;51986;52.788;41.368;2023-03-04T04:01:07;97699.81;;;0.41;62.61
65384;BME280;51986;52.788;41.368;2023-03-04T04:03:34;97694.56;;;0.30;63.17
65384;BME280;51986;52.788;41.368;2023-03-04T04:06:01;97695.72;;;0.40;63.18
65384;BME280;51986;52.788;41.368;2023-03-04T04:08:28;97697.19;;;0.34;63.94
65384;BME280;51986;52.788;41.368;2023-03-04T04:10:55;97667.09;;;0.22;63.28
65384;BME280;51986;52.788;41.368;2023-03-04T04:13:22;97688.72;;;0.44;63.16
65384;BME280;51986;52.788;41.368;2023-03-04T04:15:52;97695.69;;;0.29;63.74
65384;BME280;51986;52.788;41.368;2023-03-04T04:18:19;97664.56;;;0.29;63.80
65384;BME280;51986;52.788;41.368;2023-03-04T04:20:46;97693.97;;;0.51;63.61
65384;BME280;51986;52.788;41.368;2023-03-04T04:23:13;97698.81;;;0.64;63.08
65384;BME280;51986;52.788;41.368;2023-03-04T04:25:40;97682.06;;;0.47;63.35
65384;BME280;51986;52.788;41.368;2023-03-04T04:28:07;97706.59;;;0.64;62.95
65384;BME280;51986;52.788;41.368;2023-03-04T04:30:34;97673.19;;;0.55;63.37
65384;BME280;51986;52.788;41.368;2023-03-04T04:33:01;97684.38;;;0.70;63.32
65384;BME280;51986;52.788;41.368;2023-03-04T04:35:28;97699.19;;;0.62;63.55
65384;BME280;51986;52.788;41.368;2023-03-04T04:37:55;97696.28;;;0.74;63.18
65384;BME280;51986;52.788;41.368;2023-03-04T04:40:22;97716.66;;;0.69;63.07
65384;BME280;51986;52.788;41.368;2023-03-04T04:42:49;97701.75;;;0.51;63.83
65384;BME280;51986;52.788;41.368;2023-03-04T04:45:16;97693.63;;;0.57;64.11
65384;BME280;51986;52.788;41.368;2023-03-04T04:47:43;97701.47;;;0.74;63.57
65384;BME280;51986;52.788;41.368;2023-03-04T04:50:10;97698.88;;;0.78;63.62
65384;BME280;51986;52.788;41.368;2023-03-04T04:52:37;97700.72;;;0.74;63.27
65384;BME280;51986;52.788;41.368;2023-03-04T04:55:05;97687.47;;;0.90;62.62
65384;BME280;51986;52.788;41.368;2023-03-04T04:57:33;97693.78;;;0.96;62.91
65384;BME280;51986;52.788;41.368;2023-03-04T05:00:00;97678.16;;;0.89;63.59
65384;BME280;51986;52.788;41.368;2023-03-04T05:02:27;97709.75;;;1.05;62.56
65384;BME280;51986;52.788;41.368;2023-03-04T05:04:54;97697.91;;;1.18;62.74
65384;BME280;51986;52.788;41.368;2023-03-04T05:07:21;97656.38;;;1.32;61.78
65384;BME280;51986;52.788;41.368;2023-03-04T05:09:48;97694.28;;;1.55;61.57
65384;BME280;51986;52.788;41.368;2023-03-04T05:12:15;97688.34;;;1.62;61.12
65384;BME280;51986;52.788;41.368;2023-03-04T05:14:42;97696.91;;;1.76;60.78
65384;BME280;51986;52.788;41.368;2023-03-04T05:17:09;97683.53;;;1.81;60.52
65384;BME280;51986;52.788;41.368;2023-03-04T05:19:36;97680.56;;;1.83;60.61
65384;BME280;51986;52.788;41.368;2023-03-04T05:22:03;97687.63;;;1.97;60.62
65384;BME280;51986;52.788;41.368;2023-03-04T05:24:30;97694.28;;;1.94;60.55
65384;BME280;51986;52.788;41.368;2023-03-04T05:26:57;97669.41;;;2.11;60.21
65384;BME280;51986;52.788;41.368;2023-03-04T05:29:24;97669.75;;;2.13;60.24
65384;BME280;51986;52.788;41.368;2023-03-04T05:31:51;97673.84;;;2.10;60.18
65384;BME280;51986;52.788;41.368;2023-03-04T05:34:17;97679.78;;;2.18;59.67
65384;BME280;51986;52.788;41.368;2023-03-04T05:36:44;97661.16;;;2.38;59.46
65384;BME280;51986;52.788;41.368;2023-03-04T05:39:11;97674.94;;;2.34;59.24
65384;BME280;51986;52.788;41.368;2023-03-04T05:41:38;97654.41;;;2.58;58.65
65384;BME280;51986;52.788;41.368;2023-03-04T05:44:05;97659.97;;;2.64;58.30
65384;BME280;51986;52.788;41.368;2023-03-04T05:46:32;97676.28;;;2.78;58.35
65384;BME280;51986;52.788;41.368;2023-03-04T05:48:59;97671.00;;;2.96;58.05
65384;BME280;51986;52.788;41.368;2023-03-04T05:51:26;97670.88;;;3.14;57.40
65384;BME280;51986;52.788;41.368;2023-03-04T05:53:53;97678.22;;;3.33;56.81
65384;BME280;51986;52.788;41.368;2023-03-04T05:56:20;97680.41;;;3.42;56.32
65384;BME280;51986;52.788;41.368;2023-03-04T05:58:47;97685.09;;;3.65;55.45
65384;BME280;51986;52.788;41.368;2023-03-04T06:01:15;97668.13;;;3.91;55.23
65384;BME280;51986;52.788;41.368;2023-03-04T06:03:42;97661.28;;;4.08;54.83
65384;BME280;51986;52.788;41.368;2023-03-04T06:06:09;97676.97;;;4.01;54.52
65384;BME280;51986;52.788;41.368;2023-03-04T06:08:37;97647.06;;;4.12;54.14
65384;BME280;51986;52.788;41.368;2023-03-04T06:11:04;97656.06;;;4.08;53.92
65384;BME280;51986;52.788;41.368;2023-03-04T06:13:32;97653.72;;;4.17;54.06
65384;BME280;51986;52.788;41.368;2023-03-04T06:15:59;97673.19;;;4.09;53.81
65384;BME280;51986;52.788;41.368;2023-03-04T06:18:27;97669.19;;;3.97;54.38
65384;BME280;51986;52.788;41.368;2023-03-04T06:20:59;97664.31;;;4.03;54.43
65384;BME280;51986;52.788;41.368;2023-03-04T06:23:27;97656.88;;;4.01;54.40
65384;BME280;51986;52.788;41.368;2023-03-04T06:25:57;97655.38;;;4.00;54.44
65384;BME280;51986;52.788;41.368;2023-03-04T06:28:24;97657.44;;;3.78;55.06
65384;BME280;51986;52.788;41.368;2023-03-04T06:30:53;97658.66;;;4.08;54.31
65384;BME280;51986;52.788;41.368;2023-03-04T06:33:20;97655.34;;;4.04;54.59
65384;BME280;51986;52.788;41.368;2023-03-04T06:35:48;97647.66;;;3.89;54.86
65384;BME280;51986;52.788;41.368;2023-03-04T06:38:19;97690.41;;;4.03;54.66
65384;BME280;51986;52.788;41.368;2023-03-04T06:40:46;97662.41;;;4.07;54.22
65384;BME280;51986;52.788;41.368;2023-03-04T06:43:13;97648.41;;;3.86;54.67
65384;BME280;51986;52.788;41.368;2023-03-04T06:45:39;97659.50;;;3.98;54.41
65384;BME280;51986;52.788;41.368;2023-03-04T06:48:07;97662.50;;;3.96;54.30
65384;BME280;51986;52.788;41.368;2023-03-04T06:50:34;97647.66;;;4.27;53.84
65384;BME280;51986;52.788;41.368;2023-03-04T06:53:01;97659.66;;;4.59;53.14
65384;BME280;51986;52.788;41.368;2023-03-04T06:55:28;97648.72;;;4.67;52.64
65384;BME280;51986;52.788;41.368;2023-03-04T06:57:55;97640.56;;;4.65;52.36
65384;BME280;51986;52.788;41.368;2023-03-04T07:00:22;97650.97;;;4.31;52.67
65384;BME280;51986;52.788;41.368;2023-03-04T07:02:49;97643.16;;;4.65;52.15
65384;BME280;51986;52.788;41.368;2023-03-04T07:05:20;97660.59;;;4.76;51.78
65384;BME280;51986;52.788;41.368;2023-03-04T07:07:47;97651.47;;;4.57;52.01
65384;BME280;51986;52.788;41.368;2023-03-04T07:10:14;97643.78;;;4.43;52.94
65384;BME280;51986;52.788;41.368;2023-03-04T07:12:41;97651.22;;;4.78;51.91
65384;BME280;51986;52.788;41.368;2023-03-04T07:15:08;97648.13;;;4.87;52.13
65384;BME280;51986;52.788;41.368;2023-03-04T07:17:36;97639.34;;;4.74;51.97
65384;BME280;51986;52.788;41.368;2023-03-04T07:20:03;97635.16;;;4.80;52.19
65384;BME280;51986;52.788;41.368;2023-03-04T07:22:30;97639.47;;;4.93;51.03
65384;BME280;51986;52.788;41.368;2023-03-04T07:24:57;97642.47;;;4.92;50.74
65384;BME280;51986;52.788;41.368;2023-03-04T07:27:24;97652.78;;;5.03;51.16
65384;BME280;51986;52.788;41.368;2023-03-04T07:29:51;97647.22;;;4.70;51.10
65384;BME280;51986;52.788;41.368;2023-03-04T07:32:18;97645.66;;;5.07;50.76
65384;BME280;51986;52.788;41.368;2023-03-04T07:34:45;97634.53;;;5.26;50.40
65384;BME280;51986;52.788;41.368;2023-03-04T07:37:12;97602.22;;;4.86;50.26
65384;BME280;51986;52.788;41.368;2023-03-04T07:39:39;97648.91;;;4.84;50.85
65384;BME280;51986;52.788;41.368;2023-03-04T07:42:06;97652.22;;;4.88;51.19
65384;BME280;51986;52.788;41.368;2023-03-04T07:44:38;97655.03;;;5.01;51.11
65384;BME280;51986;52.788;41.368;2023-03-04T07:47:05;97645.88;;;5.66;50.06
65384;BME280;51986;52.788;41.368;2023-03-04T07:49:32;97670.34;;;5.80;48.32
65384;BME280;51986;52.788;41.368;2023-03-04T07:52:05;97669.44;;;5.90;48.63
65384;BME280;51986;52.788;41.368;2023-03-04T07:54:35;97672.78;;;6.14;48.13
65384;BME280;51986;52.788;41.368;2023-03-04T07:57:05;97663.97;;;6.04;48.39
65384;BME280;51986;52.788;41.368;2023-03-04T07:59:33;97656.66;;;6.35;47.43
65384;BME280;51986;52.788;41.368;2023-03-04T08:02:00;97657.59;;;6.45;47.41
65384;BME280;51986;52.788;41.368;2023-03-04T08:04:30;97660.94;;;5.82;48.60
65384;BME280;51986;52.788;41.368;2023-03-04T08:07:00;97664.25;;;5.86;49.03
65384;BME280;51986;52.788;41.368;2023-03-04T08:09:28;97670.63;;;5.62;49.47
65384;BME280;51986;52.788;41.368;2023-03-04T08:11:55;97663.53;;;5.35;49.89
65384;BME280;51986;52.788;41.368;2023-03-04T08:14:22;97653.22;;;5.52;49.22
65384;BME280;51986;52.788;41.368;2023-03-04T08:16:49;97674.22;;;5.95;48.68
65384;BME280;51986;52.788;41.368;2023-03-04T08:19:16;97656.97;;;5.98;48.17
65384;BME280;51986;52.788;41.368;2023-03-04T08:21:43;97644.88;;;6.27;46.97
65384;BME280;51986;52.788;41.368;2023-03-04T08:24:10;97654.94;;;6.48;46.48
65384;BME280;51986;52.788;41.368;2023-03-04T08:26:43;97646.53;;;6.37;46.81
65384;BME280;51986;52.788;41.368;2023-03-04T08:29:15;97652.03;;;6.63;46.53
65384;BME280;51986;52.788;41.368;2023-03-04T08:31:46;97652.66;;;6.51;46.72
65384;BME280;51986;52.788;41.368;2023-03-04T08:34:15;97637.69;;;6.51;46.46
65384;BME280;51986;52.788;41.368;2023-03-04T08:36:43;97669.69;;;6.59;46.14
65384;BME280;51986;52.788;41.368;2023-03-04T08:39:18;97647.66;;;6.76;46.33
65384;BME280;51986;52.788;41.368;2023-03-04T08:41:46;97651.06;;;7.29;44.83
65384;BME280;51986;52.788;41.368;2023-03-04T08:44:14;97674.47;;;6.84;45.74
65384;BME280;51986;52.788;41.368;2023-03-04T08:46:42;97667.28;;;7.08;45.33
65384;BME280;51986;52.788;41.368;2023-03-04T08:49:13;97651.50;;;6.71;45.99
65384;BME280;51986;52.788;41.368;2023-03-04T08:51:41;97644.13;;;6.66;45.75
65384;BME280;51986;52.788;41.368;2023-03-04T08:54:08;97668.09;;;6.45;46.34
65384;BME280;51986;52.788;41.368;2023-03-04T08:56:35;97634.13;;;6.41;45.86
65384;BME280;51986;52.788;41.368;2023-03-04T08:59:02;97642.44;;;6.36;45.90
65384;BME280;51986;52.788;41.368;2023-03-04T09:01:29;97646.66;;;6.10;46.68
65384;BME280;51986;52.788;41.368;2023-03-04T09:03:56;97659.34;;;6.12;47.03
65384;BME280;51986;52.788;41.368;2023-03-04T09:06:24;97636.22;;;6.07;46.70
65384;BME280;51986;52.788;41.368;2023-03-04T09:08:51;97649.22;;;5.90;47.37
65384;BME280;51986;52.788;41.368;2023-03-04T09:11:18;97636.63;;;5.62;47.49
65384;BME280;51986;52.788;41.368;2023-03-04T09:13:45;97630.91;;;5.67;47.91
65384;BME280;51986;52.788;41.368;2023-03-04T09:16:13;97653.22;;;5.75;47.30
65384;BME280;51986;52.788;41.368;2023-03-04T09:18:41;97640.47;;;6.01;47.00
65384;BME280;51986;52.788;41.368;2023-03-04T09:21:09;97629.19;;;6.04;46.48
65384;BME280;51986;52.788;41.368;2023-03-04T09:23:37;97625.34;;;5.88;46.89
65384;BME280;51986;52.788;41.368;2023-03-04T09:26:22;97628.78;;;6.05;47.49
65384;BME280;51986;52.788;41.368;2023-03-04T09:28:54;97628.72;;;6.09;46.66
65384;BME280;51986;52.788;41.368;2023-03-04T09:31:22;97626.13;;;6.29;45.95
65384;BME280;51986;52.788;41.368;2023-03-04T09:33:50;97631.56;;;6.18;46.33
65384;BME280;51986;52.788;41.368;2023-03-04T09:36:17;97609.69;;;6.28;45.83
65384;BME280;51986;52.788;41.368;2023-03-04T09:38:45;97608.13;;;6.11;46.03
65384;BME280;51986;52.788;41.368;2023-03-04T09:41:18;97596.53;;;6.12;45.68
65384;BME280;51986;52.788;41.368;2023-03-04T09:43:48;97615.44;;;6.39;45.11
65384;BME280;51986;52.788;41.368;2023-03-04T09:46:33;97611.75;;;6.37;45.92
65384;BME280;51986;52.788;41.368;2023-03-04T09:49:01;97593.91;;;6.12;45.30
65384;BME280;51986;52.788;41.368;2023-03-04T09:54:07;97592.22;;;6.21;46.01
65384;BME280;51986;52.788;41.368;2023-03-04T09:56:37;97577.53;;;6.28;45.56
65384;BME280;51986;52.788;41.368;2023-03-04T09:59:08;97604.25;;;6.75;44.90
65384;BME280;51986;52.788;41.368;2023-03-04T10:01:52;97593.28;;;6.24;45.57
65384;BME280;51986;52.788;41.368;2023-03-04T10:04:39;97599.31;;;6.21;45.51
65384;BME280;51986;52.788;41.368;2023-03-04T10:07:16;97616.38;;;6.29;45.55
65384;BME280;51986;52.788;41.368;2023-03-04T10:09:45;97606.31;;;6.47;45.18
65384;BME280;51986;52.788;41.368;2023-03-04T10:12:15;97610.25;;;6.76;44.74
65384;BME280;51986;52.788;41.368;2023-03-04T10:15:16;97591.00;;;6.46;45.13
65384;BME280;51986;52.788;41.368;2023-03-04T10:17:47;97584.84;;;6.36;45.13
65384;BME280;51986;52.788;41.368;2023-03-04T10:20:23;97598.53;;;6.24;45.05
65384;BME280;51986;52.788;41.368;2023-03-04T10:23:09;97587.25;;;6.27;44.87
65384;BME280;51986;52.788;41.368;2023-03-04T10:25:42;97589.94;;;6.04;44.87
65384;BME280;51986;52.788;41.368;2023-03-04T10:28:17;97600.50;;;5.96;45.93
65384;BME280;51986;52.788;41.368;2023-03-04T10:31:08;97585.56;;;5.97;45.50
65384;BME280;51986;52.788;41.368;2023-03-04T10:33:38;97589.66;;;5.78;45.56
65384;BME280;51986;52.788;41.368;2023-03-04T10:38:48;97597.31;;;5.42;46.93
65384;BME280;51986;52.788;41.368;2023-03-04T10:41:27;97583.50;;;5.41;47.49
65384;BME280;51986;52.788;41.368;2023-03-04T10:46:25;97571.19;;;5.42;47.57
65384;BME280;51986;52.788;41.368;2023-03-04T10:48:53;97588.59;;;5.72;47.45
65384;BME280;51986;52.788;41.368;2023-03-04T10:51:21;97610.00;;;5.43;47.81
65384;BME280;51986;52.788;41.368;2023-03-04T10:54:46;97573.59;;;5.29;48.17
65384;BME280;51986;52.788;41.368;2023-03-04T10:56:56;97587.78;;;5.05;48.94
65384;BME280;51986;52.788;41.368;2023-03-04T11:04:55;97573.78;;;5.18;48.42
65384;BME280;51986;52.788;41.368;2023-03-04T11:07:24;97583.09;;;5.19;49.09
65384;BME280;51986;52.788;41.368;2023-03-04T11:09:51;97560.69;;;5.18;47.83
65384;BME280;51986;52.788;41.368;2023-03-04T11:12:21;97581.28;;;4.89;48.65
65384;BME280;51986;52.788;41.368;2023-03-04T11:14:57;97572.72;;;5.16;47.75
65384;BME280;51986;52.788;41.368;2023-03-04T11:17:27;97569.81;;;4.53;49.77
65384;BME280;51986;52.788;41.368;2023-03-04T11:22:36;97565.63;;;4.89;48.55
65384;BME280;51986;52.788;41.368;2023-03-04T11:27:57;97563.69;;;4.93;48.36
65384;BME280;51986;52.788;41.368;2023-03-04T11:33:08;97565.81;;;4.75;48.26
65384;BME280;51986;52.788;41.368;2023-03-04T11:38:22;97594.75;;;4.88;47.96
65384;BME280;51986;52.788;41.368;2023-03-04T11:41:03;97575.47;;;4.78;47.89
65384;BME280;51986;52.788;41.368;2023-03-04T11:43:42;97560.00;;;4.64;48.74
65384;BME280;51986;52.788;41.368;2023-03-04T12:05:59;97569.19;;;3.73;50.35
65384;BME280;51986;52.788;41.368;2023-03-04T12:14:01;97557.53;;;3.81;50.40
65384;BME280;51986;52.788;41.368;2023-03-04T12:39:17;97529.25;;;3.38;50.11
65384;BME280;51986;52.788;41.368;2023-03-04T12:41:58;97530.81;;;3.32;49.69
65384;BME280;51986;52.788;41.368;2023-03-04T12:44:35;97536.81;;;3.26;50.11
65384;BME280;51986;52.788;41.368;2023-03-04T12:47:16;97536.16;;;3.14;49.54
65384;BME280;51986;52.788;41.368;2023-03-04T12:52:43;97533.22;;;3.09;50.76
65384;BME280;51986;52.788;41.368;2023-03-04T12:55:17;97543.94;;;3.18;50.09
65384;BME280;51986;52.788;41.368;2023-03-04T12:57:45;97547.34;;;3.15;50.59
65384;BME280;51986;52.788;41.368;2023-03-04T13:00:26;97527.84;;;3.30;50.60
65384;BME280;51986;52.788;41.368;2023-03-04T13:03:13;97539.03;;;3.27;50.49
65384;BME280;51986;52.788;41.368;2023-03-04T13:16:50;97514.91;;;2.68;52.12
65384;BME280;51986;52.788;41.368;2023-03-04T13:22:29;97516.47;;;2.51;53.41
65384;BME280;51986;52.788;41.368;2023-03-04T13:25:26;97513.41;;;2.70;52.25
65384;BME280;51986;52.788;41.368;2023-03-04T13:41:20;97492.09;;;2.23;52.63
65384;BME280;51986;52.788;41.368;2023-03-04T13:43:55;97514.41;;;2.24;53.17
65384;BME280;51986;52.788;41.368;2023-03-04T13:51:30;97480.19;;;2.29;53.32
65384;BME280;51986;52.788;41.368;2023-03-04T13:56:47;97486.25;;;2.05;53.85
65384;BME280;51986;52.788;41.368;2023-03-04T14:00:00;97489.53;;;2.20;53.41
65384;BME280;51986;52.788;41.368;2023-03-04T14:07:26;97478.84;;;1.96;54.27
65384;BME280;51986;52.788;41.368;2023-03-04T14:10:00;97483.69;;;1.87;54.22
65384;BME280;51986;52.788;41.368;2023-03-04T14:12:30;97471.78;;;1.90;53.94
65384;BME280;51986;52.788;41.368;2023-03-04T14:15:00;97468.44;;;1.93;53.79
65384;BME280;51986;52.788;41.368;2023-03-04T14:17:32;97474.44;;;1.75;54.39
65384;BME280;51986;52.788;41.368;2023-03-04T14:20:01;97471.47;;;1.73;54.42
65384;BME280;51986;52.788;41.368;2023-03-04T14:22:40;97435.84;;;1.70;54.48
65384;BME280;51986;52.788;41.368;2023-03-04T14:27:40;97444.84;;;1.48;54.64
65384;BME280;51986;52.788;41.368;2023-03-04T14:30:22;97444.06;;;1.58;55.38
65384;BME280;51986;52.788;41.368;2023-03-04T14:33:13;97467.78;;;1.71;55.27
65384;BME280;51986;52.788;41.368;2023-03-04T14:35:45;97450.28;;;1.78;54.19
65384;BME280;51986;52.788;41.368;2023-03-04T14:38:31;97452.22;;;1.64;54.53
65384;BME280;51986;52.788;41.368;2023-03-04T14:46:44;97469.31;;;1.54;55.43
65384;BME280;51986;52.788;41.368;2023-03-04T14:49:34;97455.97;;;1.48;55.42
65384;BME280;51986;52.788;41.368;2023-03-04T14:52:02;97434.84;;;1.36;56.05
65384;BME280;51986;52.788;41.368;2023-03-04T14:56:58;97440.41;;;1.30;56.10
65384;BME280;51986;52.788;41.368;2023-03-04T14:59:31;97443.75;;;1.35;56.29
65384;BME280;51986;52.788;41.368;2023-03-04T15:04:53;97465.25;;;1.31;56.74
65384;BME280;51986;52.788;41.368;2023-03-04T15:07:35;97430.03;;;1.23;56.62
65384;BME280;51986;52.788;41.368;2023-03-04T15:10:07;97411.84;;;1.34;57.09
65384;BME280;51986;52.788;41.368;2023-03-04T15:12:37;97431.53;;;1.21;56.94
65384;BME280;51986;52.788;41.368;2023-03-04T15:21:01;97429.63;;;1.36;57.83
65384;BME280;51986;52.788;41.368;2023-03-04T15:23:31;97435.25;;;1.09;59.01
65384;BME280;51986;52.788;41.368;2023-03-04T15:26:01;97435.25;;;1.05;59.61
65384;BME280;51986;52.788;41.368;2023-03-04T15:28:39;97442.69;;;1.14;60.21